• Join FlightAware (Why Join?)
  • Login
  • US Flag 
11:20PM EDT


 

Airport Tracker/Info


-or-


 

Live Flight TrackerFlight Track Log ✈ OPT325 ✈ 26-Nov-2013 ✈ KDTW - KMIA

Flight Track Log - Related Links

Times and Time Zones

All times are in EST time to prevent confusion due to time zone crossing. See the OPT325 flight status page for this flight to view local times or setup timezone preferences in your user account.

Time Position Orientation Groundspeed Altitude Reporting Facility
EST Latitude Longitude Course Direction KTS MPH feet Rate Location/Type
03:37PM 42.2075 -83.3503 190° South 165 190 1,500  Level Cleveland Center
03:38PM 42.1047 -83.3753 190° South 263 303 6,900 3,240 Climbing Cleveland Center
03:39PM 42.0792 -83.3786 186° South 267 307 8,500 3,660 Climbing Cleveland Center
03:40PM 41.9928 -83.3683 175° South 265 305 12,600 3,780 Climbing Cleveland Center
03:41PM 41.9122 -83.3619 177° South 284 327 16,400 3,360 Climbing Cleveland Center
03:42PM 41.8319 -83.3547 176° South 284 327 19,700 2,700 Climbing Cleveland Center
03:43PM 41.7511 -83.3486 177° South 290 334 22,100 2,100 Climbing Cleveland Center
03:44PM 41.6614 -83.3406 176° South 317 365 24,100 1,980 Climbing Cleveland Center
03:45PM 41.5722 -83.3356 178° South 321 369 26,200 2,220 Climbing Cleveland Center
03:46PM 41.4958 -83.3525 189° South 283 326 28,700 2,220 Climbing Cleveland Center
03:47PM 41.4200 -83.3956 203° Southwest 249 287 30,900 1,800 Climbing Cleveland Center
03:48PM 41.3561 -83.4336 204° Southwest 251 289 32,500 1,500 Climbing Cleveland Center
03:49PM 41.2933 -83.4700 204° Southwest 248 285 34,100 1,560 Climbing Cleveland Center
03:50PM 41.2308 -83.5053 203° Southwest 245 282 35,800 1,500 Climbing Cleveland Center
03:51PM 41.1706 -83.5414 204° Southwest 239 275 37,200 1,200 Climbing Cleveland Center
03:52PM 41.1089 -83.5767 203° Southwest 242 278 38,300 1,020 Climbing Cleveland Center
03:53PM 41.0417 -83.6133 202° Southwest 239 275 39,400 1,020 Climbing Cleveland Center
03:54PM 41.0044 -83.6364 205° Southwest 242 278 40,000 660 Climbing Indianapolis Center
03:55PM 40.9408 -83.6717 203° Southwest 246 283 40,500 480 Climbing Indianapolis Center
03:56PM 40.8764 -83.7097 204° Southwest 255 293 41,000 480 Climbing Indianapolis Center
03:57PM 40.7953 -83.7553 203° Southwest 263 303 41,600 480 Climbing Indianapolis Center
03:58PM 40.7269 -83.7939 203° Southwest 268 308 42,000 420 Climbing Indianapolis Center
03:59PM 40.6561 -83.8336 203° Southwest 275 316 42,500 480 Climbing Indianapolis Center
04:00PM 40.5858 -83.8753 204° Southwest 277 319 43,000 480 Climbing Indianapolis Center
04:01PM 40.5136 -83.9133 202° Southwest 279 321 43,500 480 Climbing Indianapolis Center
04:02PM 40.4322 -83.9139 180° South 296 341 44,000 480 Climbing Indianapolis Center
04:03PM 40.3350 -83.9139 180° South 293 337 44,600 480 Climbing Indianapolis Center
04:04PM 40.2544 -83.9142 180° South 291 335 45,000 180 Climbing Indianapolis Center
04:05PM 40.1728 -83.9128 179° South 292 336 45,000  Level Indianapolis Center
04:06PM 40.0883 -83.9142 181° South 302 348 45,000  Level Indianapolis Center
04:07PM 40.0014 -83.9128 179° South 312 359 45,000  Level Indianapolis Center
04:08PM 39.8939 -83.9119 180° South 322 371 45,000  Level Indianapolis Center
04:09PM 39.8033 -83.9125 180° South 327 376 45,000  Level Indianapolis Center
04:10PM 39.7114 -83.9114 179° South 333 383 45,000  Level Indianapolis Center
04:11PM 39.6203 -83.9111 180° South 330 380 45,000  Level Indianapolis Center
04:12PM 39.5286 -83.9111 180° South 331 381 45,000  Level Indianapolis Center
04:13PM 39.4367 -83.9111 180° South 332 382 45,000  Level Indianapolis Center
04:14PM 39.3278 -83.9106 180° South 329 379 45,000  Level Indianapolis Center
04:15PM 39.2369 -83.9106 180° South 326 375 45,000  Level Indianapolis Center
04:16PM 39.1472 -83.9100 180° South 324 373 45,000  Level Indianapolis Center
04:18PM 39.0578 -83.9097 180° South 323 372 45,000  Level Indianapolis Center
04:19PM 38.9689 -83.9086 179° South 321 369 45,000  Level Indianapolis Center
04:20PM 38.8639 -83.9072 179° South 316 364 45,000  Level Indianapolis Center
04:21PM 38.7758 -83.9069 180° South 317 365 45,000  Level Indianapolis Center
04:22PM 38.6881 -83.9053 179° South 315 362 45,000  Level Indianapolis Center
04:23PM 38.5919 -83.9064 181° South 317 365 45,000  Level Indianapolis Center
04:24PM 38.5044 -83.9056 180° South 312 359 45,000  Level Indianapolis Center
04:25PM 38.4158 -83.9050 180° South 316 364 45,000  Level Indianapolis Center
04:26PM 38.3267 -83.9044 180° South 319 367 45,000  Level Indianapolis Center
04:27PM 38.2386 -83.9047 180° South 317 365 45,000  Level Indianapolis Center
04:28PM 38.1344 -83.9053 180° South 319 367 45,000  Level Indianapolis Center
04:34PM 37.6219 -83.9031 180° South 322 371 45,000  Level FlightAware ADS-B
04:34PM 37.5762 -83.9102 187° South 315 362 45,000  Level FlightAware ADS-B
04:35PM 37.5316 -83.9162 186° South 317 365 45,000  Level FlightAware ADS-B
04:36PM 37.4380 -83.9289 186° South 317 365 45,000  Level FlightAware ADS-B
04:36PM 37.3933 -83.9351 186° South 316 364 45,000  Level FlightAware ADS-B
04:37PM 37.3492 -83.9412 186° South 314 361 45,000  Level FlightAware ADS-B
04:38PM 37.2738 -83.9517 186° South 313 360 45,000  Level FlightAware ADS-B
04:38PM 37.2295 -83.9579 186° South 312 359 45,000  Level FlightAware ADS-B
04:39PM 37.1851 -83.9641 186° South 313 360 45,000  Level FlightAware ADS-B
04:39PM 37.1180 -83.9734 186° South 314 361 45,000  Level FlightAware ADS-B
04:40PM 37.0746 -83.9794 186° South 314 361 45,000  Level FlightAware ADS-B
04:40PM 37.0184 -83.9872 186° South 314 361 45,000  Level FlightAware ADS-B
04:41PM 36.9726 -83.9935 186° South 315 362 45,000  Level FlightAware ADS-B
04:42PM 36.8987 -84.0037 186° South 314 361 45,000  Level FlightAware ADS-B
04:43PM 36.8445 -84.0112 186° South 313 360 45,000  Level FlightAware ADS-B
04:43PM 36.7902 -84.0185 186° South 312 359 45,000  Level FlightAware ADS-B
04:44PM 36.7387 -84.0256 186° South 311 358 45,000  Level FlightAware ADS-B
04:44PM 36.6956 -84.0314 186° South 311 358 45,000  Level FlightAware ADS-B
04:45PM 36.6488 -84.0379 186° South 311 358 45,000  Level FlightAware ADS-B
04:45PM 36.6050 -84.0439 186° South 311 358 45,000  Level FlightAware ADS-B
04:46PM 36.5607 -84.0499 186° South 311 358 45,000  Level FlightAware ADS-B
04:46PM 36.5178 -84.0558 186° South 311 358 45,000  Level FlightAware ADS-B
04:47PM 36.4738 -84.0618 186° South 312 359 45,000  Level FlightAware ADS-B
04:47PM 36.4271 -84.0681 186° South 312 359 45,000  Level FlightAware ADS-B
04:48PM 36.3840 -84.0739 186° South 312 359 45,000  Level FlightAware ADS-B
04:48PM 36.3406 -84.0798 186° South 312 359 45,000  Level FlightAware ADS-B
04:49PM 36.2953 -84.0860 186° South 311 358 45,000  Level FlightAware ADS-B
04:49PM 36.2519 -84.0918 186° South 310 357 45,000  Level FlightAware ADS-B
04:50PM 36.2084 -84.0978 186° South 310 357 45,000  Level FlightAware ADS-B
04:50PM 36.1613 -84.1041 186° South 309 356 45,000  Level FlightAware ADS-B
04:51PM 36.1178 -84.1100 186° South 308 354 45,000  Level FlightAware ADS-B
04:51PM 36.0740 -84.1158 186° South 308 354 45,000  Level FlightAware ADS-B
04:52PM 36.0305 -84.1217 186° South 309 356 45,000  Level FlightAware ADS-B
04:52PM 35.9874 -84.1275 186° South 311 358 45,000  Level FlightAware ADS-B
04:53PM 35.9427 -84.1335 186° South 312 359 45,000  Level FlightAware ADS-B
04:54PM 35.8995 -84.1393 186° South 313 360 45,000  Level FlightAware ADS-B
04:54PM 35.8557 -84.1451 186° South 312 359 45,000  Level FlightAware ADS-B
04:55PM 35.8048 -84.1520 186° South 310 357 45,000  Level FlightAware ADS-B
04:55PM 35.7596 -84.1580 186° South 308 354 45,000  Level FlightAware ADS-B
04:56PM 35.7172 -84.1637 186° South 307 353 45,000  Level FlightAware ADS-B
04:56PM 35.6722 -84.1697 186° South 307 353 45,000  Level FlightAware ADS-B
04:57PM 35.6295 -84.1754 186° South 307 353 45,000  Level FlightAware ADS-B
04:57PM 35.5865 -84.1810 186° South 307 353 45,000  Level FlightAware ADS-B
04:58PM 35.5370 -84.1877 186° South 308 354 45,000  Level FlightAware ADS-B
04:58PM 35.4939 -84.1934 186° South 308 354 45,000  Level FlightAware ADS-B
04:59PM 35.4490 -84.1993 186° South 309 356 45,000  Level FlightAware ADS-B
04:59PM 35.4058 -84.2051 186° South 308 354 45,000  Level FlightAware ADS-B
05:00PM 35.3627 -84.2107 186° South 307 353 45,000  Level FlightAware ADS-B
05:00PM 35.3170 -84.2168 186° South 307 353 45,000  Level FlightAware ADS-B
05:01PM 35.2707 -84.2229 186° South 307 353 45,000  Level FlightAware ADS-B
05:02PM 35.2086 -84.2311 186° South 307 353 45,000  Level FlightAware ADS-B
05:02PM 35.1650 -84.2368 186° South 307 353 45,000  Level FlightAware ADS-B
05:03PM 35.1218 -84.2425 186° South 308 354 45,000  Level FlightAware ADS-B
05:03PM 35.0690 -84.2495 186° South 309 356 45,000  Level FlightAware ADS-B
05:04PM 35.0253 -84.2552 186° South 309 356 45,000  Level FlightAware ADS-B
05:04PM 34.9816 -84.2609 186° South 308 354 45,000  Level FlightAware ADS-B
05:05PM 34.9381 -84.2666 186° South 307 353 45,000  Level FlightAware ADS-B
05:05PM 34.8949 -84.2723 186° South 306 352 45,000  Level FlightAware ADS-B
05:06PM 34.8511 -84.2780 186° South 305 351 45,000  Level FlightAware ADS-B
05:06PM 34.8078 -84.2836 186° South 303 349 45,000  Level FlightAware ADS-B
05:07PM 34.7661 -84.2890 186° South 301 346 45,000  Level FlightAware ADS-B
05:07PM 34.7244 -84.2944 186° South 301 346 45,000  Level FlightAware ADS-B
05:08PM 34.6823 -84.2999 186° South 301 346 45,000  Level FlightAware ADS-B
05:09PM 34.6229 -84.3077 186° South 302 348 45,000  Level FlightAware ADS-B
05:09PM 34.5809 -84.3131 186° South 302 348 45,000  Level FlightAware ADS-B
05:10PM 34.5376 -84.3188 186° South 302 348 45,000  Level FlightAware ADS-B
05:10PM 34.4871 -84.3253 186° South 302 348 45,000  Level FlightAware ADS-B
05:13PM 34.2312 -84.3584 186° South 306 352 45,000  Level FlightAware ADS-B
05:14PM 34.1854 -84.3642 186° South 306 352 45,000  Level FlightAware ADS-B
05:14PM 34.1411 -84.3700 186° South 306 352 45,000  Level FlightAware ADS-B
05:19PM 33.7227 -84.2672 168° South 333 383 45,000  Level FlightAware ADS-B
05:20PM 33.6379 -84.2321 161° South 335 386 45,000  Level FlightAware ADS-B
05:21PM 33.5884 -84.2115 161° South 337 388 45,000  Level FlightAware ADS-B
05:21PM 33.5265 -84.1859 161° South 340 391 45,000  Level FlightAware ADS-B
05:22PM 33.4775 -84.1658 161° South 341 392 45,000  Level FlightAware ADS-B
05:22PM 33.4323 -84.1471 161° South 341 392 45,000  Level FlightAware ADS-B
05:23PM 33.3696 -84.1213 161° South 343 395 45,000  Level FlightAware ADS-B
05:24PM 33.3100 -84.1008 161° South 343 395 45,000  Level Atlanta Center
05:25PM 33.2181 -84.0661 162° South 343 395 45,000  Level Atlanta Center
05:26PM 33.1264 -84.0239 159° South 343 395 45,000  Level Atlanta Center
05:27PM 33.0386 -83.9844 159° South 343 395 45,000  Level Atlanta Center
05:28PM 32.9614 -83.9572 164° South 348 400 45,000  Level Atlanta Center
05:29PM 32.8633 -83.9153 160° South 348 400 45,000  Level Atlanta Center
05:30PM 32.7672 -83.8783 162° South 348 400 45,000  Level Atlanta Center
05:31PM 32.6731 -83.8389 161° South 353 406 45,000  Level Atlanta Center
05:33PM 32.5017 -83.7694 161° South 361 415 45,000  Level Jacksonville Center
05:34PM 32.4039 -83.7292 161° South 367 422 45,000  Level Jacksonville Center
05:35PM 32.3122 -83.6914 161° South 367 422 45,000  Level Jacksonville Center
05:36PM 32.2164 -83.6514 161° South 367 422 45,000  Level Jacksonville Center
05:37PM 32.1164 -83.6136 162° South 367 422 45,000  Level Jacksonville Center
05:38PM 32.0206 -83.5689 158° South 367 422 45,000  Level Jacksonville Center
05:39PM 31.9250 -83.5044 150° Southeast 374 430 45,000  Level Jacksonville Center
05:40PM 31.8314 -83.4378 149° Southeast 388 447 45,000  Level Jacksonville Center
05:41PM 31.7356 -83.3786 152° Southeast 393 452 45,000  Level Jacksonville Center
05:42PM 31.6417 -83.3172 151° Southeast 393 452 45,000  Level Jacksonville Center
05:43PM 31.5439 -83.2533 151° Southeast 393 452 45,000  Level Jacksonville Center
05:44PM 31.4500 -83.1897 150° Southeast 393 452 45,000  Level Jacksonville Center
05:45PM 31.3417 -83.1333 156° South 388 447 45,000  Level Jacksonville Center
05:46PM 31.2436 -83.1017 165° South 377 434 45,000  Level Jacksonville Center
05:47PM 31.1411 -83.0722 166° South 372 428 45,000  Level Jacksonville Center
05:48PM 31.0411 -83.0406 165° South 372 428 45,000  Level Jacksonville Center
05:49PM 30.9431 -83.0089 165° South 372 428 45,000  Level Jacksonville Center
05:50PM 30.8406 -82.9797 166° South 372 428 45,000  Level Jacksonville Center
05:51PM 30.7550 -82.9506 164° South 372 428 45,000  Level Jacksonville Center
05:52PM 30.6422 -82.9311 172° South 372 428 45,000  Level Jacksonville Center
05:53PM 30.5631 -82.9289 179° South 367 422 45,000  Level Jacksonville Center
05:54PM 30.4544 -82.9167 174° South 362 417 45,000  Level Jacksonville Center
05:55PM 30.3522 -82.9094 177° South 362 417 45,000  Level Jacksonville Center
05:56PM 30.2561 -82.9022 176° South 362 417 45,000  Level Jacksonville Center
05:57PM 30.1539 -82.8950 177° South 362 417 45,000  Level Jacksonville Center
05:58PM 30.0514 -82.8878 177° South 367 422 45,000  Level Jacksonville Center
05:59PM 29.9325 -82.8733 174° South 373 429 45,000  Level Jacksonville Center
06:00PM 29.8281 -82.8447 167° South 395 455 45,000  Level Jacksonville Center
06:01PM 29.7236 -82.8111 164° South 389 448 45,000  Level Jacksonville Center
06:02PM 29.6192 -82.7828 167° South 394 453 45,000  Level Jacksonville Center
06:03PM 29.5128 -82.7517 166° South 386 444 45,000  Level Jacksonville Center
06:04PM 29.4189 -82.7208 164° South 393 452 45,000  Level Jacksonville Center
06:05PM 29.3122 -82.6903 166° South 393 452 45,000  Level Jacksonville Center
06:06PM 29.2078 -82.6617 167° South 393 452 45,000  Level Jacksonville Center
06:07PM 29.1014 -82.6311 166° South 393 452 45,000  Level Jacksonville Center
06:08PM 28.9947 -82.6078 169° South 393 452 45,000  Level Jacksonville Center
06:09PM 28.8819 -82.5892 172° South 393 452 45,000  Level Jacksonville Center
06:10PM 28.7756 -82.5728 172° South 388 447 45,000  Level Jacksonville Center
06:11PM 28.6817 -82.5614 174° South 388 447 45,000  Level Jacksonville Center
06:12PM 28.5794 -82.5450 172° South 383 441 45,000  Level Jacksonville Center
06:13PM 28.3917 -82.5147 172° South 394 453 45,000  Level Miami Center
06:14PM 28.2858 -82.4978 172° South 394 453 45,000  Level Miami Center
06:15PM 28.1822 -82.4831 173° South 389 448 45,000  Level Miami Center
06:17PM 28.0782 -82.4682 173° South  Level FlightAware Approximate
06:17PM 27.9708 -82.4467 173° South 384 442 45,000  Level Miami Center
06:18PM 27.8650 -82.4319 173° South 384 442 45,000  Level Miami Center
06:19PM 27.7589 -82.3658 151° Southeast 382 440 45,000  Level Miami Center
06:20PM 27.6694 -82.3100 151° Southeast 397 457 45,000  Level Miami Center
06:21PM 27.5717 -82.2444 149° Southeast 407 468 45,000  Level Miami Center
06:22PM 27.4636 -82.1739 150° Southeast 407 468 45,000 -300 Level Miami Center
06:23PM 27.3636 -82.1133 152° Southeast 407 468 44,500 -780 Descending Miami Center
06:24PM 27.2658 -82.0503 150° Southeast 407 468 43,500 -960 Descending Miami Center
06:25PM 27.1739 -81.9903 150° Southeast 407 468 42,600 -1,140 Descending Miami Center
06:26PM 27.0636 -81.9203 151° Southeast 407 468 41,300 -1,560 Descending Miami Center
06:27PM 26.9617 -81.8550 150° Southeast 407 468 39,500 -1,920 Descending Miami Center
06:28PM 26.8800 -81.8028 150° Southeast 412 474 37,500 -2,640 Descending Miami Center
06:29PM 26.7531 -81.7231 151° Southeast 430 495 34,300 -2,880 Descending Miami Center
06:30PM 26.6469 -81.6558 150° Southeast 430 495 31,800 -2,580 Descending Miami Center
06:31PM 26.5447 -81.5889 150° Southeast 430 495 29,200 -2,460 Descending Miami Center
06:32PM 26.4464 -81.5294 152° Southeast 435 501 26,900 -2,400 Descending Miami Center
06:33PM 26.3400 -81.4603 150° Southeast 435 501 24,400 -2,580 Descending Miami Center
06:34PM 26.2506 -81.3781 140° Southeast 430 495 21,800 -2,640 Descending Miami Center
06:35PM 26.1719 -81.2872 134° Southeast 418 481 19,200 -2,640 Descending Miami Center
06:36PM 26.0911 -81.1964 135° Southeast 386 444 16,600 -2,700 Descending Miami Center
06:36PM 26.0872 -81.1917 133° Southeast 401 461 16,500 -2,460 Descending Miami Center
06:37PM 26.0167 -81.1081 133° Southeast 383 441 14,100 -2,220 Descending Miami Center
06:38PM 25.9517 -81.0367 135° Southeast 373 429 12,100 -2,400 Descending Miami Center
06:38PM 25.9394 -81.0244 138° Southeast 367 422 11,700 -2,580 Descending Miami Center
06:39PM 25.9042 -80.9447 116° Southeast 306 352 9,700 -1,980 Descending Miami Center
06:39PM 25.9061 -80.9494 295° West 356 410 9,800 -2,220 Climbing Miami Center
06:40PM 25.8900 -80.8544 101° East 293 337 7,500 -2,220 Descending Miami Center
06:40PM 25.8919 -80.8614 287° West 306 352 7,600 -1,680 Climbing Miami Center
06:41PM 25.8756 -80.7683 101° East 292 336 5,800 -1,740 Descending Miami Center
06:41PM 25.8797 -80.7708 332° Northwest 294 338 5,900 -1,260 Climbing Miami Center
06:42PM 25.8653 -80.6828 100° East 294 338 4,500 -1,500 Descending Miami Center
06:42PM 25.8575 -80.6686 121° Southeast 282 325 4,300 -1,320 Descending Miami Center
06:43PM 25.8528 -80.6014 94° East 281 323 3,200 -720 Descending Miami Center
06:44PM 25.8278 -80.5222 109° East 269 310 3,000 -120 Descending Miami Center
06:44PM 25.8217 -80.5153 134° Southeast 264 304 3,100 60 Climbing Miami Center
06:45PM 25.8003 -80.4453 109° East 209 241 3,100 -600 Level Miami Center
06:46PM 25.7972 -80.3967 94° East 142 163 1,900 -1,080 Descending Miami Center
06:47PM 25.7986 -80.3483 88° East 147 169 1,000 -840 Descending Miami Center
06:48PM 25.8014 -80.3092 85° East 121 139 200 -840 Descending Miami Center
06:50PM 25.7954 -80.2901 20° North  Level Estimated
06:57PM 25.7954 -80.2901 20° North  Level Estimated